sensor_id;sensor_type;location;lat;lon;timestamp;P1;durP1;ratioP1;P2;durP2;ratioP2
29430;SDS011;16404;49.902;10.074;2023-03-31T00:02:29;5.63;;;1.60;;
29430;SDS011;16404;49.902;10.074;2023-03-31T00:05:14;8.40;;;2.00;;
29430;SDS011;16404;49.902;10.074;2023-03-31T00:08:01;6.72;;;1.40;;
29430;SDS011;16404;49.902;10.074;2023-03-31T00:10:48;11.38;;;1.70;;
29430;SDS011;16404;49.902;10.074;2023-03-31T00:13:33;5.10;;;1.40;;
29430;SDS011;16404;49.902;10.074;2023-03-31T00:16:19;5.35;;;1.50;;
29430;SDS011;16404;49.902;10.074;2023-03-31T00:19:04;8.45;;;1.60;;
29430;SDS011;16404;49.902;10.074;2023-03-31T00:21:52;6.50;;;1.33;;
29430;SDS011;16404;49.902;10.074;2023-03-31T00:24:37;6.25;;;1.60;;
29430;SDS011;16404;49.902;10.074;2023-03-31T00:27:22;5.97;;;1.83;;
29430;SDS011;16404;49.902;10.074;2023-03-31T00:30:07;5.07;;;2.08;;
29430;SDS011;16404;49.902;10.074;2023-03-31T00:32:52;6.28;;;1.40;;
29430;SDS011;16404;49.902;10.074;2023-03-31T00:35:38;6.30;;;1.60;;
29430;SDS011;16404;49.902;10.074;2023-03-31T00:41:07;4.35;;;1.40;;
29430;SDS011;16404;49.902;10.074;2023-03-31T00:44:00;6.63;;;1.35;;
29430;SDS011;16404;49.902;10.074;2023-03-31T00:49:46;7.78;;;1.40;;
29430;SDS011;16404;49.902;10.074;2023-03-31T00:52:34;8.13;;;1.67;;
29430;SDS011;16404;49.902;10.074;2023-03-31T00:55:22;6.10;;;1.35;;
29430;SDS011;16404;49.902;10.074;2023-03-31T00:58:13;7.00;;;1.58;;
29430;SDS011;16404;49.902;10.074;2023-03-31T01:01:03;5.93;;;1.42;;
29430;SDS011;16404;49.902;10.074;2023-03-31T01:03:47;6.65;;;1.50;;
29430;SDS011;16404;49.902;10.074;2023-03-31T01:06:33;9.25;;;1.30;;
29430;SDS011;16404;49.902;10.074;2023-03-31T01:09:24;3.80;;;1.17;;
29430;SDS011;16404;49.902;10.074;2023-03-31T01:12:14;5.97;;;1.65;;
29430;SDS011;16404;49.902;10.074;2023-03-31T01:15:01;3.97;;;1.17;;
29430;SDS011;16404;49.902;10.074;2023-03-31T01:17:47;8.60;;;1.42;;
29430;SDS011;16404;49.902;10.074;2023-03-31T01:33:03;4.80;;;1.42;;
29430;SDS011;16404;49.902;10.074;2023-03-31T01:45:36;12.77;;;1.40;;
29430;SDS011;16404;49.902;10.074;2023-03-31T01:57:40;7.85;;;1.63;;
29430;SDS011;16404;49.902;10.074;2023-03-31T02:00:50;5.07;;;1.48;;
29430;SDS011;16404;49.902;10.074;2023-03-31T02:03:45;7.45;;;1.50;;
29430;SDS011;16404;49.902;10.074;2023-03-31T02:06:39;8.73;;;1.80;;
29430;SDS011;16404;49.902;10.074;2023-03-31T02:09:34;5.40;;;1.80;;
29430;SDS011;16404;49.902;10.074;2023-03-31T02:12:23;3.75;;;1.23;;
29430;SDS011;16404;49.902;10.074;2023-03-31T02:15:13;9.40;;;1.83;;
29430;SDS011;16404;49.902;10.074;2023-03-31T02:18:02;7.80;;;2.10;;
29430;SDS011;16404;49.902;10.074;2023-03-31T02:20:53;4.95;;;1.88;;
29430;SDS011;16404;49.902;10.074;2023-03-31T02:23:40;10.18;;;2.10;;
29430;SDS011;16404;49.902;10.074;2023-03-31T02:26:27;6.13;;;2.13;;
29430;SDS011;16404;49.902;10.074;2023-03-31T02:29:16;9.00;;;2.00;;
29430;SDS011;16404;49.902;10.074;2023-03-31T02:34:53;9.27;;;2.22;;
29430;SDS011;16404;49.902;10.074;2023-03-31T02:37:38;8.85;;;2.35;;
29430;SDS011;16404;49.902;10.074;2023-03-31T02:40:24;11.65;;;2.58;;
29430;SDS011;16404;49.902;10.074;2023-03-31T02:43:10;7.63;;;2.20;;
29430;SDS011;16404;49.902;10.074;2023-03-31T02:45:55;13.43;;;2.65;;
29430;SDS011;16404;49.902;10.074;2023-03-31T02:48:40;10.43;;;1.80;;
29430;SDS011;16404;49.902;10.074;2023-03-31T02:51:37;7.53;;;1.95;;
29430;SDS011;16404;49.902;10.074;2023-03-31T02:55:03;7.65;;;2.20;;
29430;SDS011;16404;49.902;10.074;2023-03-31T03:07:02;9.70;;;2.40;;
29430;SDS011;16404;49.902;10.074;2023-03-31T03:10:07;13.15;;;2.35;;
29430;SDS011;16404;49.902;10.074;2023-03-31T03:19:29;8.63;;;2.77;;
29430;SDS011;16404;49.902;10.074;2023-03-31T03:22:13;8.02;;;2.53;;
29430;SDS011;16404;49.902;10.074;2023-03-31T03:24:58;13.43;;;2.30;;
29430;SDS011;16404;49.902;10.074;2023-03-31T03:27:43;7.18;;;1.90;;
29430;SDS011;16404;49.902;10.074;2023-03-31T03:30:28;9.85;;;1.92;;
29430;SDS011;16404;49.902;10.074;2023-03-31T03:33:12;7.75;;;2.08;;
29430;SDS011;16404;49.902;10.074;2023-03-31T03:35:59;9.77;;;2.17;;
29430;SDS011;16404;49.902;10.074;2023-03-31T03:38:44;12.35;;;2.03;;
29430;SDS011;16404;49.902;10.074;2023-03-31T03:41:29;13.07;;;2.08;;
29430;SDS011;16404;49.902;10.074;2023-03-31T03:44:14;11.35;;;2.05;;
29430;SDS011;16404;49.902;10.074;2023-03-31T03:46:59;10.57;;;1.80;;
29430;SDS011;16404;49.902;10.074;2023-03-31T03:49:43;9.85;;;2.03;;
29430;SDS011;16404;49.902;10.074;2023-03-31T03:52:28;9.40;;;2.08;;
29430;SDS011;16404;49.902;10.074;2023-03-31T03:55:13;7.13;;;1.95;;
29430;SDS011;16404;49.902;10.074;2023-03-31T03:57:57;5.63;;;2.10;;
29430;SDS011;16404;49.902;10.074;2023-03-31T04:00:42;16.02;;;2.67;;
29430;SDS011;16404;49.902;10.074;2023-03-31T04:03:28;11.80;;;2.83;;
29430;SDS011;16404;49.902;10.074;2023-03-31T04:06:12;11.68;;;2.08;;
29430;SDS011;16404;49.902;10.074;2023-03-31T04:08:57;12.25;;;2.00;;
29430;SDS011;16404;49.902;10.074;2023-03-31T04:11:41;17.63;;;2.60;;
29430;SDS011;16404;49.902;10.074;2023-03-31T04:14:26;7.90;;;1.60;;
29430;SDS011;16404;49.902;10.074;2023-03-31T04:17:11;18.00;;;2.25;;
29430;SDS011;16404;49.902;10.074;2023-03-31T04:19:58;8.35;;;2.03;;
29430;SDS011;16404;49.902;10.074;2023-03-31T04:22:45;9.65;;;1.90;;
29430;SDS011;16404;49.902;10.074;2023-03-31T04:25:33;10.70;;;2.20;;
29430;SDS011;16404;49.902;10.074;2023-03-31T04:28:21;8.68;;;1.95;;
29430;SDS011;16404;49.902;10.074;2023-03-31T04:31:06;8.32;;;1.85;;
29430;SDS011;16404;49.902;10.074;2023-03-31T04:33:58;12.40;;;2.72;;
29430;SDS011;16404;49.902;10.074;2023-03-31T04:36:45;16.13;;;3.08;;
29430;SDS011;16404;49.902;10.074;2023-03-31T04:39:30;7.72;;;2.58;;
29430;SDS011;16404;49.902;10.074;2023-03-31T04:42:15;11.13;;;2.78;;
29430;SDS011;16404;49.902;10.074;2023-03-31T04:44:59;10.48;;;2.60;;
29430;SDS011;16404;49.902;10.074;2023-03-31T04:47:44;12.15;;;2.10;;
29430;SDS011;16404;49.902;10.074;2023-03-31T04:50:29;16.20;;;2.90;;
29430;SDS011;16404;49.902;10.074;2023-03-31T04:55:58;10.27;;;2.20;;
29430;SDS011;16404;49.902;10.074;2023-03-31T04:58:43;7.60;;;2.28;;
29430;SDS011;16404;49.902;10.074;2023-03-31T05:01:27;14.20;;;3.03;;
29430;SDS011;16404;49.902;10.074;2023-03-31T05:04:15;8.50;;;2.40;;
29430;SDS011;16404;49.902;10.074;2023-03-31T05:07:00;11.00;;;2.10;;
29430;SDS011;16404;49.902;10.074;2023-03-31T05:09:44;7.63;;;2.55;;
29430;SDS011;16404;49.902;10.074;2023-03-31T05:15:21;10.73;;;2.05;;
29430;SDS011;16404;49.902;10.074;2023-03-31T05:18:07;10.13;;;1.92;;
29430;SDS011;16404;49.902;10.074;2023-03-31T05:20:52;11.20;;;2.13;;
29430;SDS011;16404;49.902;10.074;2023-03-31T05:23:36;7.30;;;2.60;;
29430;SDS011;16404;49.902;10.074;2023-03-31T05:26:21;9.80;;;2.47;;
29430;SDS011;16404;49.902;10.074;2023-03-31T05:29:08;5.72;;;2.22;;
29430;SDS011;16404;49.902;10.074;2023-03-31T05:31:52;7.25;;;2.42;;
29430;SDS011;16404;49.902;10.074;2023-03-31T05:34:37;9.38;;;2.05;;
29430;SDS011;16404;49.902;10.074;2023-03-31T05:37:25;10.77;;;2.05;;
29430;SDS011;16404;49.902;10.074;2023-03-31T05:40:10;8.10;;;1.90;;
29430;SDS011;16404;49.902;10.074;2023-03-31T05:42:54;11.82;;;2.35;;
29430;SDS011;16404;49.902;10.074;2023-03-31T05:45:39;10.53;;;1.90;;
29430;SDS011;16404;49.902;10.074;2023-03-31T05:48:23;12.77;;;2.53;;
29430;SDS011;16404;49.902;10.074;2023-03-31T05:51:08;10.30;;;1.83;;
29430;SDS011;16404;49.902;10.074;2023-03-31T05:53:52;9.55;;;2.10;;
29430;SDS011;16404;49.902;10.074;2023-03-31T05:56:37;7.97;;;1.67;;
29430;SDS011;16404;49.902;10.074;2023-03-31T05:59:22;9.13;;;2.20;;
29430;SDS011;16404;49.902;10.074;2023-03-31T06:02:06;10.38;;;2.25;;
29430;SDS011;16404;49.902;10.074;2023-03-31T06:04:54;8.32;;;2.42;;
29430;SDS011;16404;49.902;10.074;2023-03-31T06:07:38;7.22;;;2.55;;
29430;SDS011;16404;49.902;10.074;2023-03-31T06:10:23;12.05;;;3.40;;
29430;SDS011;16404;49.902;10.074;2023-03-31T06:13:08;12.32;;;2.90;;
29430;SDS011;16404;49.902;10.074;2023-03-31T06:15:53;13.20;;;2.67;;
29430;SDS011;16404;49.902;10.074;2023-03-31T06:18:39;12.18;;;3.58;;
29430;SDS011;16404;49.902;10.074;2023-03-31T06:21:24;13.43;;;4.00;;
29430;SDS011;16404;49.902;10.074;2023-03-31T06:24:12;21.13;;;4.40;;
29430;SDS011;16404;49.902;10.074;2023-03-31T06:27:00;13.68;;;4.82;;
29430;SDS011;16404;49.902;10.074;2023-03-31T06:29:44;18.13;;;6.20;;
29430;SDS011;16404;49.902;10.074;2023-03-31T06:32:29;17.58;;;6.57;;
29430;SDS011;16404;49.902;10.074;2023-03-31T06:35:14;16.38;;;5.32;;
29430;SDS011;16404;49.902;10.074;2023-03-31T06:37:58;16.23;;;4.40;;
29430;SDS011;16404;49.902;10.074;2023-03-31T06:40:43;15.38;;;4.25;;
29430;SDS011;16404;49.902;10.074;2023-03-31T06:43:28;16.13;;;4.68;;
29430;SDS011;16404;49.902;10.074;2023-03-31T06:46:12;14.75;;;4.95;;
29430;SDS011;16404;49.902;10.074;2023-03-31T06:48:57;17.20;;;6.18;;
29430;SDS011;16404;49.902;10.074;2023-03-31T06:51:42;14.18;;;4.75;;
29430;SDS011;16404;49.902;10.074;2023-03-31T06:54:26;10.80;;;3.35;;
29430;SDS011;16404;49.902;10.074;2023-03-31T06:57:11;9.77;;;2.80;;
29430;SDS011;16404;49.902;10.074;2023-03-31T06:59:56;10.27;;;2.30;;
29430;SDS011;16404;49.902;10.074;2023-03-31T07:02:40;9.82;;;2.78;;
29430;SDS011;16404;49.902;10.074;2023-03-31T07:05:26;12.00;;;2.75;;
29430;SDS011;16404;49.902;10.074;2023-03-31T07:08:11;10.80;;;2.65;;
29430;SDS011;16404;49.902;10.074;2023-03-31T07:10:57;14.52;;;3.00;;
29430;SDS011;16404;49.902;10.074;2023-03-31T07:13:43;6.95;;;2.90;;
29430;SDS011;16404;49.902;10.074;2023-03-31T07:16:27;14.13;;;4.60;;
29430;SDS011;16404;49.902;10.074;2023-03-31T07:19:12;11.45;;;4.22;;
29430;SDS011;16404;49.902;10.074;2023-03-31T07:21:58;16.55;;;3.88;;
29430;SDS011;16404;49.902;10.074;2023-03-31T07:24:43;13.20;;;4.72;;
29430;SDS011;16404;49.902;10.074;2023-03-31T07:27:27;15.80;;;4.47;;
29430;SDS011;16404;49.902;10.074;2023-03-31T07:30:13;12.70;;;3.95;;
29430;SDS011;16404;49.902;10.074;2023-03-31T07:33:00;13.15;;;3.90;;
29430;SDS011;16404;49.902;10.074;2023-03-31T07:35:44;12.60;;;4.07;;
29430;SDS011;16404;49.902;10.074;2023-03-31T07:38:29;14.63;;;3.65;;
29430;SDS011;16404;49.902;10.074;2023-03-31T07:41:15;12.77;;;3.53;;
29430;SDS011;16404;49.902;10.074;2023-03-31T07:44:02;9.30;;;3.63;;
29430;SDS011;16404;49.902;10.074;2023-03-31T07:46:46;17.98;;;3.60;;
29430;SDS011;16404;49.902;10.074;2023-03-31T07:49:32;6.75;;;3.60;;
29430;SDS011;16404;49.902;10.074;2023-03-31T07:52:17;11.98;;;4.28;;
29430;SDS011;16404;49.902;10.074;2023-03-31T07:58:10;13.93;;;4.82;;
29430;SDS011;16404;49.902;10.074;2023-03-31T08:01:46;17.42;;;5.30;;
29430;SDS011;16404;49.902;10.074;2023-03-31T08:05:34;14.70;;;4.97;;
29430;SDS011;16404;49.902;10.074;2023-03-31T08:12:54;14.38;;;4.65;;
29430;SDS011;16404;49.902;10.074;2023-03-31T08:15:39;13.23;;;4.50;;
29430;SDS011;16404;49.902;10.074;2023-03-31T08:18:24;11.80;;;5.22;;
29430;SDS011;16404;49.902;10.074;2023-03-31T08:21:08;13.20;;;5.10;;
29430;SDS011;16404;49.902;10.074;2023-03-31T08:23:53;16.40;;;5.38;;
29430;SDS011;16404;49.902;10.074;2023-03-31T08:26:39;14.50;;;5.50;;
29430;SDS011;16404;49.902;10.074;2023-03-31T08:29:24;15.63;;;5.57;;
29430;SDS011;16404;49.902;10.074;2023-03-31T08:32:08;13.50;;;5.13;;
29430;SDS011;16404;49.902;10.074;2023-03-31T08:34:53;11.30;;;4.90;;
29430;SDS011;16404;49.902;10.074;2023-03-31T08:37:37;12.68;;;5.47;;
29430;SDS011;16404;49.902;10.074;2023-03-31T08:40:23;8.85;;;5.18;;
29430;SDS011;16404;49.902;10.074;2023-03-31T08:43:11;12.85;;;4.90;;
29430;SDS011;16404;49.902;10.074;2023-03-31T08:46:02;14.48;;;4.68;;
29430;SDS011;16404;49.902;10.074;2023-03-31T08:48:52;12.07;;;4.75;;
29430;SDS011;16404;49.902;10.074;2023-03-31T08:51:40;11.20;;;4.43;;
29430;SDS011;16404;49.902;10.074;2023-03-31T09:11:25;27.77;;;8.35;;
29430;SDS011;16404;49.902;10.074;2023-03-31T09:14:52;15.50;;;5.35;;
29430;SDS011;16404;49.902;10.074;2023-03-31T09:17:45;17.90;;;6.05;;
29430;SDS011;16404;49.902;10.074;2023-03-31T09:20:34;10.00;;;3.95;;
29430;SDS011;16404;49.902;10.074;2023-03-31T09:23:26;14.45;;;4.82;;
29430;SDS011;16404;49.902;10.074;2023-03-31T09:26:28;6.43;;;3.00;;
29430;SDS011;16404;49.902;10.074;2023-03-31T09:30:01;5.47;;;2.15;;
29430;SDS011;16404;49.902;10.074;2023-03-31T09:32:41;6.30;;;2.13;;
29430;SDS011;16404;49.902;10.074;2023-03-31T09:35:25;8.20;;;2.22;;
29430;SDS011;16404;49.902;10.074;2023-03-31T09:38:11;7.05;;;2.67;;
29430;SDS011;16404;49.902;10.074;2023-03-31T09:40:57;6.50;;;2.10;;
29430;SDS011;16404;49.902;10.074;2023-03-31T09:43:44;4.63;;;1.70;;
29430;SDS011;16404;49.902;10.074;2023-03-31T09:46:32;6.47;;;2.10;;
29430;SDS011;16404;49.902;10.074;2023-03-31T09:49:22;9.40;;;3.63;;
29430;SDS011;16404;49.902;10.074;2023-03-31T09:52:28;6.85;;;2.63;;
29430;SDS011;16404;49.902;10.074;2023-03-31T09:58:31;9.68;;;1.33;;
29430;SDS011;16404;49.902;10.074;2023-03-31T10:01:29;4.30;;;1.77;;
29430;SDS011;16404;49.902;10.074;2023-03-31T10:07:06;3.72;;;1.65;;
29430;SDS011;16404;49.902;10.074;2023-03-31T10:09:54;4.45;;;2.15;;
29430;SDS011;16404;49.902;10.074;2023-03-31T10:12:40;5.38;;;1.95;;
29430;SDS011;16404;49.902;10.074;2023-03-31T10:15:37;2.67;;;1.33;;
29430;SDS011;16404;49.902;10.074;2023-03-31T10:18:30;3.03;;;1.40;;
29430;SDS011;16404;49.902;10.074;2023-03-31T10:21:25;4.05;;;1.63;;
29430;SDS011;16404;49.902;10.074;2023-03-31T10:24:18;4.55;;;1.70;;
29430;SDS011;16404;49.902;10.074;2023-03-31T10:27:03;7.78;;;2.20;;
29430;SDS011;16404;49.902;10.074;2023-03-31T10:29:50;4.65;;;1.48;;
29430;SDS011;16404;49.902;10.074;2023-03-31T10:32:37;7.45;;;2.70;;
29430;SDS011;16404;49.902;10.074;2023-03-31T10:35:35;4.13;;;1.80;;
29430;SDS011;16404;49.902;10.074;2023-03-31T10:38:38;3.60;;;1.40;;
29430;SDS011;16404;49.902;10.074;2023-03-31T10:41:42;5.28;;;1.60;;
29430;SDS011;16404;49.902;10.074;2023-03-31T10:44:34;4.07;;;1.45;;
29430;SDS011;16404;49.902;10.074;2023-03-31T10:47:34;4.70;;;1.98;;
29430;SDS011;16404;49.902;10.074;2023-03-31T10:50:53;5.63;;;1.73;;
29430;SDS011;16404;49.902;10.074;2023-03-31T10:59:47;3.63;;;1.83;;
29430;SDS011;16404;49.902;10.074;2023-03-31T11:03:01;10.50;;;4.15;;
29430;SDS011;16404;49.902;10.074;2023-03-31T11:06:38;1.25;;;0.80;;
29430;SDS011;16404;49.902;10.074;2023-03-31T11:15:45;3.30;;;1.00;;
29430;SDS011;16404;49.902;10.074;2023-03-31T11:18:42;2.20;;;0.60;;
29430;SDS011;16404;49.902;10.074;2023-03-31T11:28:11;2.13;;;0.70;;
29430;SDS011;16404;49.902;10.074;2023-03-31T11:36:03;4.20;;;1.05;;
29430;SDS011;16404;49.902;10.074;2023-03-31T11:39:53;2.55;;;0.95;;
29430;SDS011;16404;49.902;10.074;2023-03-31T11:43:55;1.90;;;0.80;;
29430;SDS011;16404;49.902;10.074;2023-03-31T11:46:58;6.07;;;1.17;;
29430;SDS011;16404;49.902;10.074;2023-03-31T11:54:28;1.02;;;0.70;;
29430;SDS011;16404;49.902;10.074;2023-03-31T12:03:32;4.30;;;1.20;;
29430;SDS011;16404;49.902;10.074;2023-03-31T12:15:38;6.50;;;1.30;;
29430;SDS011;16404;49.902;10.074;2023-03-31T12:19:48;7.43;;;1.40;;
29430;SDS011;16404;49.902;10.074;2023-03-31T12:23:11;6.03;;;1.15;;
29430;SDS011;16404;49.902;10.074;2023-03-31T12:29:38;9.18;;;1.98;;
29430;SDS011;16404;49.902;10.074;2023-03-31T12:32:45;6.15;;;1.45;;
29430;SDS011;16404;49.902;10.074;2023-03-31T12:36:16;4.47;;;1.40;;
29430;SDS011;16404;49.902;10.074;2023-03-31T12:39:16;5.32;;;1.13;;
29430;SDS011;16404;49.902;10.074;2023-03-31T12:45:28;6.80;;;1.30;;
29430;SDS011;16404;49.902;10.074;2023-03-31T12:55:06;6.68;;;1.10;;
29430;SDS011;16404;49.902;10.074;2023-03-31T13:01:20;5.05;;;1.00;;
29430;SDS011;16404;49.902;10.074;2023-03-31T13:04:19;42.78;;;10.40;;
29430;SDS011;16404;49.902;10.074;2023-03-31T13:07:11;36.85;;;12.10;;
29430;SDS011;16404;49.902;10.074;2023-03-31T13:13:14;3.22;;;1.00;;
29430;SDS011;16404;49.902;10.074;2023-03-31T13:16:06;5.72;;;1.80;;
29430;SDS011;16404;49.902;10.074;2023-03-31T13:18:51;5.85;;;1.20;;
29430;SDS011;16404;49.902;10.074;2023-03-31T13:21:54;2.53;;;0.77;;
29430;SDS011;16404;49.902;10.074;2023-03-31T13:24:41;5.45;;;1.40;;
29430;SDS011;16404;49.902;10.074;2023-03-31T13:27:32;4.68;;;1.25;;
29430;SDS011;16404;49.902;10.074;2023-03-31T13:33:21;7.40;;;1.55;;
29430;SDS011;16404;49.902;10.074;2023-03-31T13:52:34;7.00;;;1.30;;
29430;SDS011;16404;49.902;10.074;2023-03-31T13:58:52;10.43;;;1.55;;
29430;SDS011;16404;49.902;10.074;2023-03-31T14:08:06;4.65;;;1.23;;
29430;SDS011;16404;49.902;10.074;2023-03-31T14:11:21;3.53;;;0.90;;
29430;SDS011;16404;49.902;10.074;2023-03-31T14:14:16;6.72;;;1.15;;
29430;SDS011;16404;49.902;10.074;2023-03-31T14:17:01;8.30;;;1.10;;
29430;SDS011;16404;49.902;10.074;2023-03-31T14:32:57;8.70;;;1.13;;
29430;SDS011;16404;49.902;10.074;2023-03-31T14:36:49;6.60;;;1.50;;
29430;SDS011;16404;49.902;10.074;2023-03-31T14:39:08;6.00;;;1.17;;
29430;SDS011;16404;49.902;10.074;2023-03-31T14:41:56;4.25;;;1.02;;
29430;SDS011;16404;49.902;10.074;2023-03-31T14:44:44;3.03;;;1.27;;
29430;SDS011;16404;49.902;10.074;2023-03-31T14:47:30;3.28;;;1.17;;
29430;SDS011;16404;49.902;10.074;2023-03-31T14:50:16;5.10;;;1.45;;
29430;SDS011;16404;49.902;10.074;2023-03-31T14:53:01;4.28;;;1.02;;
29430;SDS011;16404;49.902;10.074;2023-03-31T14:55:47;6.25;;;1.27;;
29430;SDS011;16404;49.902;10.074;2023-03-31T14:58:34;3.40;;;1.08;;
29430;SDS011;16404;49.902;10.074;2023-03-31T15:01:25;4.15;;;1.30;;
29430;SDS011;16404;49.902;10.074;2023-03-31T15:04:20;8.45;;;1.30;;
29430;SDS011;16404;49.902;10.074;2023-03-31T15:07:08;7.00;;;1.20;;
29430;SDS011;16404;49.902;10.074;2023-03-31T15:09:54;13.55;;;1.33;;
29430;SDS011;16404;49.902;10.074;2023-03-31T15:12:39;8.10;;;1.75;;
29430;SDS011;16404;49.902;10.074;2023-03-31T15:15:25;7.65;;;1.80;;
29430;SDS011;16404;49.902;10.074;2023-03-31T15:18:11;1.42;;;0.73;;
29430;SDS011;16404;49.902;10.074;2023-03-31T15:20:57;6.32;;;2.17;;
29430;SDS011;16404;49.902;10.074;2023-03-31T15:23:42;6.25;;;2.95;;
29430;SDS011;16404;49.902;10.074;2023-03-31T15:26:28;5.10;;;1.30;;
29430;SDS011;16404;49.902;10.074;2023-03-31T15:29:21;4.85;;;2.05;;
29430;SDS011;16404;49.902;10.074;2023-03-31T15:32:16;4.50;;;1.92;;
29430;SDS011;16404;49.902;10.074;2023-03-31T15:35:21;4.95;;;2.65;;
29430;SDS011;16404;49.902;10.074;2023-03-31T15:38:10;5.57;;;2.42;;
29430;SDS011;16404;49.902;10.074;2023-03-31T15:40:59;10.05;;;5.55;;
29430;SDS011;16404;49.902;10.074;2023-03-31T15:43:45;14.00;;;7.82;;
29430;SDS011;16404;49.902;10.074;2023-03-31T15:46:49;8.27;;;5.03;;
29430;SDS011;16404;49.902;10.074;2023-03-31T16:30:22;3.00;;;1.45;;
29430;SDS011;16404;49.902;10.074;2023-03-31T16:33:21;4.82;;;2.20;;
29430;SDS011;16404;49.902;10.074;2023-03-31T16:36:07;14.10;;;4.18;;
29430;SDS011;16404;49.902;10.074;2023-03-31T16:38:55;7.35;;;1.05;;
29430;SDS011;16404;49.902;10.074;2023-03-31T16:41:42;4.68;;;0.80;;
29430;SDS011;16404;49.902;10.074;2023-03-31T16:44:26;4.40;;;1.90;;
29430;SDS011;16404;49.902;10.074;2023-03-31T16:47:14;3.90;;;2.35;;
29430;SDS011;16404;49.902;10.074;2023-03-31T16:49:59;3.50;;;1.42;;
29430;SDS011;16404;49.902;10.074;2023-03-31T16:52:44;4.60;;;1.50;;
29430;SDS011;16404;49.902;10.074;2023-03-31T16:55:30;5.43;;;2.10;;
29430;SDS011;16404;49.902;10.074;2023-03-31T17:01:00;5.77;;;2.57;;
29430;SDS011;16404;49.902;10.074;2023-03-31T17:03:46;2.28;;;2.05;;
29430;SDS011;16404;49.902;10.074;2023-03-31T17:06:31;3.80;;;2.00;;
29430;SDS011;16404;49.902;10.074;2023-03-31T17:09:15;2.28;;;1.52;;
29430;SDS011;16404;49.902;10.074;2023-03-31T17:12:00;2.58;;;1.27;;
29430;SDS011;16404;49.902;10.074;2023-03-31T17:14:45;4.78;;;2.00;;
29430;SDS011;16404;49.902;10.074;2023-03-31T17:17:29;1.90;;;1.23;;
29430;SDS011;16404;49.902;10.074;2023-03-31T17:20:14;3.53;;;1.63;;
29430;SDS011;16404;49.902;10.074;2023-03-31T17:22:58;1.85;;;1.35;;
29430;SDS011;16404;49.902;10.074;2023-03-31T17:25:47;2.75;;;1.83;;
29430;SDS011;16404;49.902;10.074;2023-03-31T17:28:32;3.70;;;1.48;;
29430;SDS011;16404;49.902;10.074;2023-03-31T17:31:18;7.78;;;4.28;;
29430;SDS011;16404;49.902;10.074;2023-03-31T17:34:04;6.35;;;2.25;;
29430;SDS011;16404;49.902;10.074;2023-03-31T17:36:49;5.13;;;2.00;;
29430;SDS011;16404;49.902;10.074;2023-03-31T17:39:34;3.40;;;1.40;;
29430;SDS011;16404;49.902;10.074;2023-03-31T17:42:18;2.45;;;1.48;;
29430;SDS011;16404;49.902;10.074;2023-03-31T17:45:03;4.07;;;2.10;;
29430;SDS011;16404;49.902;10.074;2023-03-31T17:47:49;6.55;;;2.50;;
29430;SDS011;16404;49.902;10.074;2023-03-31T17:50:34;4.40;;;2.10;;
29430;SDS011;16404;49.902;10.074;2023-03-31T17:53:19;3.38;;;2.03;;
29430;SDS011;16404;49.902;10.074;2023-03-31T17:56:04;7.18;;;1.80;;
29430;SDS011;16404;49.902;10.074;2023-03-31T17:58:49;6.43;;;2.20;;
29430;SDS011;16404;49.902;10.074;2023-03-31T18:01:33;8.18;;;2.28;;
29430;SDS011;16404;49.902;10.074;2023-03-31T18:04:18;10.60;;;2.88;;
29430;SDS011;16404;49.902;10.074;2023-03-31T18:07:03;5.20;;;1.80;;
29430;SDS011;16404;49.902;10.074;2023-03-31T18:12:33;7.03;;;1.90;;
29430;SDS011;16404;49.902;10.074;2023-03-31T18:15:19;8.55;;;4.45;;
29430;SDS011;16404;49.902;10.074;2023-03-31T18:21:32;9.32;;;2.00;;
29430;SDS011;16404;49.902;10.074;2023-03-31T18:24:17;9.98;;;4.20;;
29430;SDS011;16404;49.902;10.074;2023-03-31T18:27:03;7.35;;;1.85;;
29430;SDS011;16404;49.902;10.074;2023-03-31T18:29:48;7.85;;;2.00;;
29430;SDS011;16404;49.902;10.074;2023-03-31T18:32:32;9.38;;;2.80;;
29430;SDS011;16404;49.902;10.074;2023-03-31T18:35:17;8.65;;;1.73;;
29430;SDS011;16404;49.902;10.074;2023-03-31T18:38:03;6.53;;;1.58;;
29430;SDS011;16404;49.902;10.074;2023-03-31T18:40:48;9.40;;;1.45;;
29430;SDS011;16404;49.902;10.074;2023-03-31T18:43:33;4.43;;;1.10;;
29430;SDS011;16404;49.902;10.074;2023-03-31T18:46:18;6.80;;;1.80;;
29430;SDS011;16404;49.902;10.074;2023-03-31T18:49:02;7.75;;;2.05;;
29430;SDS011;16404;49.902;10.074;2023-03-31T18:51:47;3.70;;;1.52;;
29430;SDS011;16404;49.902;10.074;2023-03-31T18:54:31;7.68;;;1.73;;
29430;SDS011;16404;49.902;10.074;2023-03-31T18:57:16;4.15;;;1.30;;
29430;SDS011;16404;49.902;10.074;2023-03-31T19:00:01;7.57;;;1.60;;
29430;SDS011;16404;49.902;10.074;2023-03-31T19:02:47;3.75;;;1.35;;
29430;SDS011;16404;49.902;10.074;2023-03-31T19:05:31;6.03;;;1.60;;
29430;SDS011;16404;49.902;10.074;2023-03-31T19:08:17;4.70;;;1.10;;
29430;SDS011;16404;49.902;10.074;2023-03-31T19:11:07;6.05;;;1.40;;
29430;SDS011;16404;49.902;10.074;2023-03-31T19:13:54;4.15;;;1.40;;
29430;SDS011;16404;49.902;10.074;2023-03-31T19:16:39;3.90;;;1.00;;
29430;SDS011;16404;49.902;10.074;2023-03-31T19:19:26;4.60;;;1.40;;
29430;SDS011;16404;49.902;10.074;2023-03-31T19:22:11;4.25;;;1.17;;
29430;SDS011;16404;49.902;10.074;2023-03-31T19:24:55;2.65;;;1.10;;
29430;SDS011;16404;49.902;10.074;2023-03-31T19:27:40;4.68;;;1.05;;
29430;SDS011;16404;49.902;10.074;2023-03-31T19:33:11;5.13;;;1.40;;
29430;SDS011;16404;49.902;10.074;2023-03-31T19:35:55;3.30;;;1.20;;
29430;SDS011;16404;49.902;10.074;2023-03-31T19:38:40;3.65;;;1.50;;
29430;SDS011;16404;49.902;10.074;2023-03-31T19:41:25;2.90;;;1.15;;
29430;SDS011;16404;49.902;10.074;2023-03-31T19:46:54;7.93;;;1.20;;
29430;SDS011;16404;49.902;10.074;2023-03-31T19:49:41;4.47;;;1.23;;
29430;SDS011;16404;49.902;10.074;2023-03-31T19:52:27;2.75;;;1.15;;
29430;SDS011;16404;49.902;10.074;2023-03-31T19:55:12;4.57;;;1.52;;
29430;SDS011;16404;49.902;10.074;2023-03-31T20:00:41;3.28;;;1.33;;
29430;SDS011;16404;49.902;10.074;2023-03-31T20:03:26;2.63;;;1.10;;
29430;SDS011;16404;49.902;10.074;2023-03-31T20:06:12;5.97;;;1.15;;
29430;SDS011;16404;49.902;10.074;2023-03-31T20:08:58;6.03;;;1.40;;
29430;SDS011;16404;49.902;10.074;2023-03-31T20:11:43;5.88;;;1.15;;
29430;SDS011;16404;49.902;10.074;2023-03-31T20:14:28;7.95;;;1.15;;
29430;SDS011;16404;49.902;10.074;2023-03-31T20:17:13;2.08;;;1.23;;
29430;SDS011;16404;49.902;10.074;2023-03-31T20:19:58;7.55;;;1.20;;
29430;SDS011;16404;49.902;10.074;2023-03-31T20:22:42;8.48;;;1.42;;
29430;SDS011;16404;49.902;10.074;2023-03-31T20:25:29;7.32;;;1.30;;
29430;SDS011;16404;49.902;10.074;2023-03-31T20:28:13;9.30;;;1.50;;
29430;SDS011;16404;49.902;10.074;2023-03-31T20:30:58;3.45;;;1.00;;
29430;SDS011;16404;49.902;10.074;2023-03-31T20:33:43;7.38;;;1.30;;
29430;SDS011;16404;49.902;10.074;2023-03-31T20:36:29;5.22;;;1.15;;
29430;SDS011;16404;49.902;10.074;2023-03-31T20:39:14;6.53;;;1.10;;
29430;SDS011;16404;49.902;10.074;2023-03-31T20:41:59;3.00;;;1.17;;
29430;SDS011;16404;49.902;10.074;2023-03-31T20:47:29;4.30;;;0.93;;
29430;SDS011;16404;49.902;10.074;2023-03-31T20:50:16;5.47;;;1.05;;
29430;SDS011;16404;49.902;10.074;2023-03-31T20:53:00;4.85;;;1.38;;
29430;SDS011;16404;49.902;10.074;2023-03-31T20:55:45;4.95;;;1.08;;
29430;SDS011;16404;49.902;10.074;2023-03-31T20:58:29;5.93;;;1.42;;
29430;SDS011;16404;49.902;10.074;2023-03-31T21:01:15;5.30;;;1.00;;